createdAt,value
2022-11-09T00:00:03.925Z,11.44
2022-11-09T00:00:34.720Z,11.43
2022-11-09T00:01:05.587Z,11.44
2022-11-09T00:01:36.363Z,11.44
2022-11-09T00:02:07.217Z,11.47
2022-11-09T00:02:42.936Z,11.47
2022-11-09T00:03:10.733Z,11.49
2022-11-09T00:03:41.583Z,11.49
2022-11-09T00:04:12.429Z,11.49
2022-11-09T00:04:43.221Z,11.49
2022-11-09T00:05:14.029Z,11.51
2022-11-09T00:05:44.844Z,11.52
2022-11-09T00:06:15.717Z,11.51
2022-11-09T00:06:46.590Z,11.51
2022-11-09T00:07:17.526Z,11.51
2022-11-09T00:07:48.372Z,11.51
2022-11-09T00:08:19.169Z,11.51
2022-11-09T00:08:49.988Z,11.52
2022-11-09T00:09:20.892Z,11.49
2022-11-09T00:09:51.868Z,11.51
2022-11-09T00:10:22.761Z,11.49
2022-11-09T00:10:53.619Z,11.49
2022-11-09T00:11:24.449Z,11.47
2022-11-09T00:11:55.290Z,11.49
2022-11-09T00:12:26.112Z,11.52
2022-11-09T00:12:56.902Z,11.54
2022-11-09T00:13:27.725Z,11.55
2022-11-09T00:13:58.539Z,11.54
2022-11-09T00:14:29.368Z,11.57
2022-11-09T00:15:00.195Z,11.57
2022-11-09T00:15:31.021Z,11.58
2022-11-09T00:16:01.799Z,11.58
2022-11-09T00:16:32.609Z,11.58
2022-11-09T00:17:03.463Z,11.60
2022-11-09T00:17:34.271Z,11.60
2022-11-09T00:18:05.099Z,11.60
2022-11-09T00:18:35.927Z,11.61
2022-11-09T00:19:06.755Z,11.64
2022-11-09T00:19:37.570Z,11.62
2022-11-09T00:20:08.381Z,11.62
2022-11-09T00:20:43.178Z,11.61
2022-11-09T00:21:11.843Z,11.58
2022-11-09T00:21:42.634Z,11.57
2022-11-09T00:22:13.489Z,11.57
2022-11-09T00:22:44.304Z,11.55
2022-11-09T00:23:15.132Z,11.55
2022-11-09T00:23:45.980Z,11.54
2022-11-09T00:24:16.766Z,11.54
2022-11-09T00:24:47.546Z,11.51
2022-11-09T00:25:18.413Z,11.51
2022-11-09T00:25:49.202Z,11.49
2022-11-09T00:26:20.105Z,11.47
2022-11-09T00:26:50.926Z,11.49
2022-11-09T00:27:21.741Z,11.52
2022-11-09T00:27:52.545Z,11.52
2022-11-09T00:28:23.358Z,11.52
2022-11-09T00:28:54.198Z,11.51
2022-11-09T00:29:25.014Z,11.52
2022-11-09T00:29:55.834Z,11.54
2022-11-09T00:30:26.644Z,11.55
2022-11-09T00:30:57.424Z,11.58
2022-11-09T00:31:28.277Z,11.58
2022-11-09T00:31:59.057Z,11.60
2022-11-09T00:32:29.896Z,11.62
2022-11-09T00:33:00.696Z,11.64
2022-11-09T00:33:31.550Z,11.65
2022-11-09T00:34:02.353Z,11.67
2022-11-09T00:34:33.164Z,11.69
2022-11-09T00:35:04.018Z,11.73
2022-11-09T00:35:34.806Z,11.75
2022-11-09T00:36:05.582Z,11.75
2022-11-09T00:36:36.444Z,11.76
2022-11-09T00:37:07.290Z,11.78
2022-11-09T00:37:38.160Z,11.76
2022-11-09T00:38:09.067Z,11.76
2022-11-09T00:38:39.946Z,11.76
2022-11-09T00:39:10.801Z,11.78
2022-11-09T00:39:41.586Z,11.79
2022-11-09T00:40:12.439Z,11.79
2022-11-09T00:40:43.219Z,11.78
2022-11-09T00:41:14.032Z,11.79
2022-11-09T00:41:44.880Z,11.80
2022-11-09T00:42:15.666Z,11.80
2022-11-09T00:42:46.468Z,11.78
2022-11-09T00:43:17.596Z,11.78
2022-11-09T00:43:48.767Z,11.78
2022-11-09T00:44:19.706Z,11.78
2022-11-09T00:44:50.536Z,11.78
2022-11-09T00:45:21.343Z,11.78
2022-11-09T00:45:52.171Z,11.78
2022-11-09T00:46:23.016Z,11.78
2022-11-09T00:46:54.060Z,11.76
2022-11-09T00:47:24.911Z,11.76
2022-11-09T00:47:55.680Z,11.76
2022-11-09T00:48:26.495Z,11.76
2022-11-09T00:48:57.296Z,11.76
2022-11-09T00:49:28.138Z,11.79
2022-11-09T00:49:58.918Z,11.78
2022-11-09T00:50:29.768Z,11.79
2022-11-09T00:51:00.578Z,11.79
2022-11-09T00:51:31.381Z,11.79
2022-11-09T00:52:02.278Z,11.80
2022-11-09T00:52:33.100Z,11.80
2022-11-09T00:53:03.920Z,11.82
2022-11-09T00:53:34.734Z,11.83
2022-11-09T00:54:05.568Z,11.86
2022-11-09T00:54:36.343Z,11.86
2022-11-09T00:55:07.156Z,11.86
2022-11-09T00:55:37.959Z,11.88
2022-11-09T00:56:08.811Z,11.88
2022-11-09T00:56:39.663Z,11.90
2022-11-09T00:57:10.520Z,11.88
2022-11-09T00:57:41.329Z,11.88
2022-11-09T00:58:12.159Z,11.86
2022-11-09T00:58:43.040Z,11.86
2022-11-09T00:59:13.809Z,11.85
2022-11-09T00:59:44.641Z,11.83
2022-11-09T01:00:15.513Z,11.83
2022-11-09T01:00:46.412Z,11.83
2022-11-09T01:01:17.313Z,11.80
2022-11-09T01:01:48.225Z,11.82
2022-11-09T01:02:19.102Z,11.83
2022-11-09T01:02:50.035Z,11.85
2022-11-09T01:03:21.168Z,11.86
2022-11-09T01:03:52.231Z,11.83
2022-11-09T01:04:23.042Z,11.82
2022-11-09T01:04:53.892Z,11.83
2022-11-09T01:05:24.693Z,11.83
2022-11-09T01:05:55.549Z,11.85
2022-11-09T01:06:26.482Z,11.83
2022-11-09T01:06:57.537Z,11.85
2022-11-09T01:07:28.367Z,11.83
2022-11-09T01:07:59.234Z,11.86
2022-11-09T01:08:30.099Z,11.85
2022-11-09T01:09:00.918Z,11.86
2022-11-09T01:09:31.784Z,11.85
2022-11-09T01:10:02.590Z,11.85
2022-11-09T01:10:33.393Z,11.83
2022-11-09T01:11:04.222Z,11.82
2022-11-09T01:11:35.048Z,11.79
2022-11-09T01:12:05.863Z,11.79
2022-11-09T01:12:36.723Z,11.78
2022-11-09T01:13:07.530Z,11.78
2022-11-09T01:13:38.342Z,11.75
2022-11-09T01:14:09.165Z,11.73
2022-11-09T01:14:39.995Z,11.75
2022-11-09T01:15:10.834Z,11.73
2022-11-09T01:15:41.725Z,11.70
2022-11-09T01:16:12.567Z,11.70
2022-11-09T01:16:43.417Z,11.69
2022-11-09T01:17:14.254Z,11.67
2022-11-09T01:17:45.104Z,11.64
2022-11-09T01:18:15.918Z,11.64
2022-11-09T01:18:46.749Z,11.65
2022-11-09T01:19:17.588Z,11.64
2022-11-09T01:19:48.407Z,11.61
2022-11-09T01:20:19.226Z,11.61
2022-11-09T01:20:50.139Z,11.60
2022-11-09T01:21:21.004Z,11.60
2022-11-09T01:21:51.836Z,11.57
2022-11-09T01:22:22.661Z,11.57
2022-11-09T01:22:53.520Z,11.57
2022-11-09T01:23:24.367Z,11.57
2022-11-09T01:23:55.201Z,11.55
2022-11-09T01:24:26.036Z,11.57
2022-11-09T01:24:56.877Z,11.55
2022-11-09T01:25:27.748Z,11.58
2022-11-09T01:25:58.575Z,11.57
2022-11-09T01:26:29.447Z,11.57
2022-11-09T01:27:00.252Z,11.57
2022-11-09T01:27:31.062Z,11.57
2022-11-09T01:28:01.881Z,11.55
2022-11-09T01:28:32.684Z,11.54
2022-11-09T01:29:03.501Z,11.52
2022-11-09T01:29:34.347Z,11.52
2022-11-09T01:30:05.159Z,11.51
2022-11-09T01:30:35.967Z,11.49
2022-11-09T01:31:06.771Z,11.47
2022-11-09T01:31:37.613Z,11.46
2022-11-09T01:32:08.447Z,11.44
2022-11-09T01:32:39.433Z,11.44
2022-11-09T01:33:10.240Z,11.43
2022-11-09T01:33:41.049Z,11.43
2022-11-09T01:34:11.887Z,11.43
2022-11-09T01:34:42.709Z,11.42
2022-11-09T01:35:13.531Z,11.42
2022-11-09T01:35:44.361Z,11.42
2022-11-09T01:36:15.215Z,11.40
2022-11-09T01:36:46.095Z,11.39
2022-11-09T01:37:16.899Z,11.39
2022-11-09T01:37:47.721Z,11.40
2022-11-09T01:38:18.537Z,11.39
2022-11-09T01:38:49.342Z,11.39
2022-11-09T01:39:20.130Z,11.37
2022-11-09T01:39:50.960Z,11.36
2022-11-09T01:40:21.819Z,11.37
2022-11-09T01:40:52.603Z,11.36
2022-11-09T01:41:23.449Z,11.35
2022-11-09T01:41:54.262Z,11.35
2022-11-09T01:42:25.108Z,11.32
2022-11-09T01:42:55.900Z,11.28
2022-11-09T01:43:26.732Z,11.27
2022-11-09T01:43:57.522Z,11.24
2022-11-09T01:44:28.325Z,11.24
2022-11-09T01:44:59.152Z,11.22
2022-11-09T01:45:29.940Z,11.22
2022-11-09T01:46:00.746Z,11.22
2022-11-09T01:46:31.637Z,11.21
2022-11-09T01:47:02.440Z,11.21
2022-11-09T01:47:33.221Z,11.18
2022-11-09T01:48:04.054Z,11.19
2022-11-09T01:48:34.876Z,11.19
2022-11-09T01:49:05.669Z,11.17
2022-11-09T01:49:36.496Z,11.14
2022-11-09T01:50:07.336Z,11.14
2022-11-09T01:50:38.154Z,11.10
2022-11-09T01:51:08.922Z,11.09
2022-11-09T01:51:39.761Z,11.07
2022-11-09T01:52:10.563Z,11.06
2022-11-09T01:52:41.413Z,11.03
2022-11-09T01:53:12.230Z,11.04
2022-11-09T01:53:43.051Z,11.03
2022-11-09T01:54:13.904Z,11.03
2022-11-09T01:54:44.705Z,11.03
2022-11-09T01:55:15.497Z,11.03
2022-11-09T01:55:46.343Z,11.02
2022-11-09T01:56:17.173Z,11.03
2022-11-09T01:56:47.995Z,11.02
2022-11-09T01:57:18.786Z,11.00
2022-11-09T01:57:49.614Z,11.02
2022-11-09T01:58:20.437Z,11.02
2022-11-09T01:58:51.241Z,11.03
2022-11-09T01:59:22.035Z,11.02
2022-11-09T01:59:52.852Z,11.00
2022-11-09T02:00:23.691Z,10.99
2022-11-09T02:00:54.608Z,11.00
2022-11-09T02:01:25.542Z,11.02
2022-11-09T02:01:56.400Z,11.00
2022-11-09T02:02:27.217Z,11.00
2022-11-09T02:02:58.046Z,11.02
2022-11-09T02:03:28.861Z,11.00
2022-11-09T02:03:59.775Z,11.00
2022-11-09T02:04:30.604Z,10.99
2022-11-09T02:05:01.458Z,10.96
2022-11-09T02:05:32.266Z,10.96
2022-11-09T02:06:03.098Z,10.94
2022-11-09T02:06:33.989Z,10.92
2022-11-09T02:07:04.854Z,10.92
2022-11-09T02:07:35.655Z,10.92
2022-11-09T02:08:06.447Z,10.92
2022-11-09T02:08:37.267Z,10.94
2022-11-09T02:09:08.121Z,10.94
2022-11-09T02:09:38.905Z,10.94
2022-11-09T02:10:09.726Z,10.96
2022-11-09T02:10:40.542Z,10.94
2022-11-09T02:11:11.388Z,10.94
2022-11-09T02:11:42.186Z,10.94
2022-11-09T02:12:13.029Z,10.92
2022-11-09T02:12:43.844Z,10.91
2022-11-09T02:13:14.642Z,10.94
2022-11-09T02:13:45.427Z,10.92
2022-11-09T02:14:16.278Z,10.91
2022-11-09T02:14:47.127Z,10.92
2022-11-09T02:15:17.928Z,10.92
2022-11-09T02:15:48.746Z,10.92
2022-11-09T02:16:19.618Z,10.91
2022-11-09T02:16:50.435Z,10.89
2022-11-09T02:17:21.208Z,10.88
2022-11-09T02:17:52.037Z,10.88
2022-11-09T02:18:22.839Z,10.88
2022-11-09T02:18:53.773Z,10.86
2022-11-09T02:19:24.588Z,10.84
2022-11-09T02:19:55.410Z,10.84
2022-11-09T02:20:26.189Z,10.84
2022-11-09T02:20:57.061Z,10.82
2022-11-09T02:21:27.875Z,10.81
2022-11-09T02:21:58.700Z,10.79
2022-11-09T02:22:29.485Z,10.76
2022-11-09T02:23:00.313Z,10.76
2022-11-09T02:23:31.106Z,10.71
2022-11-09T02:24:01.913Z,10.70
2022-11-09T02:24:32.712Z,10.68
2022-11-09T02:25:03.515Z,10.68
2022-11-09T02:25:34.352Z,10.68
2022-11-09T02:26:05.208Z,10.68
2022-11-09T02:26:36.038Z,10.70
2022-11-09T02:27:06.838Z,10.67
2022-11-09T02:27:37.704Z,10.68
2022-11-09T02:28:08.514Z,10.68
2022-11-09T02:28:39.309Z,10.68
2022-11-09T02:29:10.171Z,10.67
2022-11-09T02:29:40.969Z,10.67
2022-11-09T02:30:11.798Z,10.66
2022-11-09T02:30:42.604Z,10.66
2022-11-09T02:31:13.432Z,10.67
2022-11-09T02:31:44.264Z,10.67
2022-11-09T02:32:15.081Z,10.67
2022-11-09T02:32:45.942Z,10.67
2022-11-09T02:33:17.060Z,10.68
2022-11-09T02:33:47.981Z,10.67
2022-11-09T02:34:18.801Z,10.66
2022-11-09T02:34:49.591Z,10.67
2022-11-09T02:35:20.401Z,10.66
2022-11-09T02:35:51.256Z,10.66
2022-11-09T02:36:22.120Z,10.64
2022-11-09T02:36:52.963Z,10.63
2022-11-09T02:37:23.795Z,10.63
2022-11-09T02:37:54.618Z,10.61
2022-11-09T02:38:25.432Z,10.60
2022-11-09T02:38:56.223Z,10.61
2022-11-09T02:39:27.045Z,10.59
2022-11-09T02:39:57.877Z,10.55
2022-11-09T02:40:28.692Z,10.53
2022-11-09T02:40:59.554Z,10.52
2022-11-09T02:41:30.398Z,10.52
2022-11-09T02:42:03.143Z,10.51
2022-11-09T02:42:31.702Z,10.51
2022-11-09T02:43:02.533Z,10.48
2022-11-09T02:43:33.372Z,10.47
2022-11-09T02:44:04.186Z,10.48
2022-11-09T02:44:35.304Z,10.51
2022-11-09T02:45:06.161Z,10.51
2022-11-09T02:45:36.993Z,10.51
2022-11-09T02:46:07.803Z,10.51
2022-11-09T02:46:38.631Z,10.52
2022-11-09T02:47:09.473Z,10.52
2022-11-09T02:47:40.290Z,10.53
2022-11-09T02:48:11.084Z,10.55
2022-11-09T02:48:41.893Z,10.55
2022-11-09T02:49:12.680Z,10.56
2022-11-09T02:49:43.456Z,10.55
2022-11-09T02:50:14.260Z,10.56
2022-11-09T02:50:45.074Z,10.56
2022-11-09T02:51:15.934Z,10.56
2022-11-09T02:51:46.752Z,10.59
2022-11-09T02:52:17.576Z,10.56
2022-11-09T02:52:48.433Z,10.59
2022-11-09T02:53:19.448Z,10.60
2022-11-09T02:53:50.453Z,10.60
2022-11-09T02:54:21.299Z,10.60
2022-11-09T02:54:52.095Z,10.60
2022-11-09T02:55:22.948Z,10.60
2022-11-09T02:55:53.790Z,10.61
2022-11-09T02:56:24.612Z,10.60
2022-11-09T02:56:55.452Z,10.60
2022-11-09T02:57:26.354Z,10.60
2022-11-09T02:57:57.163Z,10.59
2022-11-09T02:58:27.961Z,10.56
2022-11-09T02:58:58.767Z,10.56
2022-11-09T02:59:29.637Z,10.56
2022-11-09T03:00:00.481Z,10.56
2022-11-09T03:00:31.255Z,10.56
2022-11-09T03:01:02.117Z,10.56
2022-11-09T03:01:33.031Z,10.56
2022-11-09T03:02:03.818Z,10.56
2022-11-09T03:02:34.640Z,10.55
2022-11-09T03:03:05.436Z,10.59
2022-11-09T03:03:36.252Z,10.60
2022-11-09T03:04:07.045Z,10.60
2022-11-09T03:04:37.909Z,10.60
2022-11-09T03:05:08.715Z,10.61
2022-11-09T03:05:39.576Z,10.61
2022-11-09T03:06:10.390Z,10.60
2022-11-09T03:06:41.247Z,10.60
2022-11-09T03:07:12.124Z,10.60
2022-11-09T03:07:42.955Z,10.59
2022-11-09T03:08:13.740Z,10.59
2022-11-09T03:08:44.548Z,10.55
2022-11-09T03:09:15.316Z,10.55
2022-11-09T03:09:46.208Z,10.55
2022-11-09T03:10:17.047Z,10.56
2022-11-09T03:10:47.919Z,10.59
2022-11-09T03:11:18.763Z,10.59
2022-11-09T03:11:49.587Z,10.59
2022-11-09T03:12:20.416Z,10.60
2022-11-09T03:12:51.218Z,10.61
2022-11-09T03:13:22.216Z,10.61
2022-11-09T03:13:53.182Z,10.63
2022-11-09T03:14:23.981Z,10.61
2022-11-09T03:14:54.789Z,10.63
2022-11-09T03:15:25.640Z,10.61
2022-11-09T03:15:56.441Z,10.61
2022-11-09T03:16:27.279Z,10.61
2022-11-09T03:16:58.066Z,10.63
2022-11-09T03:17:28.927Z,10.63
2022-11-09T03:17:59.767Z,10.64
2022-11-09T03:18:30.532Z,10.63
2022-11-09T03:19:01.341Z,10.64
2022-11-09T03:19:32.186Z,10.64
2022-11-09T03:20:02.986Z,10.63
2022-11-09T03:20:33.795Z,10.64
2022-11-09T03:21:04.595Z,10.61
2022-11-09T03:21:35.440Z,10.61
2022-11-09T03:22:06.246Z,10.63
2022-11-09T03:22:37.128Z,10.63
2022-11-09T03:23:07.910Z,10.63
2022-11-09T03:23:38.755Z,10.66
2022-11-09T03:24:09.563Z,10.64
2022-11-09T03:24:40.584Z,10.63
2022-11-09T03:25:11.369Z,10.63
2022-11-09T03:25:42.188Z,10.64
2022-11-09T03:26:13.017Z,10.60
2022-11-09T03:26:43.872Z,10.61
2022-11-09T03:27:14.642Z,10.61
2022-11-09T03:27:45.473Z,10.60
2022-11-09T03:28:16.324Z,10.59
2022-11-09T03:28:47.131Z,10.59
2022-11-09T03:29:17.971Z,10.56
2022-11-09T03:29:48.793Z,10.56
2022-11-09T03:30:19.591Z,10.56
2022-11-09T03:30:50.396Z,10.59
2022-11-09T03:31:21.203Z,10.59
2022-11-09T03:31:52.045Z,10.60
2022-11-09T03:32:22.854Z,10.61
2022-11-09T03:32:53.626Z,10.60
2022-11-09T03:33:24.477Z,10.60
2022-11-09T03:33:55.322Z,10.60
2022-11-09T03:34:26.146Z,10.61
2022-11-09T03:34:57.017Z,10.61
2022-11-09T03:35:27.836Z,10.61
2022-11-09T03:35:58.676Z,10.61
2022-11-09T03:36:29.506Z,10.63
2022-11-09T03:37:00.322Z,10.63
2022-11-09T03:37:31.181Z,10.63
2022-11-09T03:38:02.077Z,10.64
2022-11-09T03:38:32.887Z,10.61
2022-11-09T03:39:03.725Z,10.63
2022-11-09T03:39:34.603Z,10.63
2022-11-09T03:40:05.419Z,10.63
2022-11-09T03:40:36.207Z,10.63
2022-11-09T03:41:07.022Z,10.64
2022-11-09T03:41:37.847Z,10.64
2022-11-09T03:42:08.667Z,10.64
2022-11-09T03:42:39.473Z,10.64
2022-11-09T03:43:10.266Z,10.64
2022-11-09T03:43:41.068Z,10.64
2022-11-09T03:44:11.884Z,10.66
2022-11-09T03:44:42.714Z,10.64
2022-11-09T03:45:13.516Z,10.63
2022-11-09T03:45:44.339Z,10.64
2022-11-09T03:46:15.178Z,10.63
2022-11-09T03:46:46.018Z,10.63
2022-11-09T03:47:16.828Z,10.63
2022-11-09T03:47:47.662Z,10.63
2022-11-09T03:48:18.466Z,10.61
2022-11-09T03:48:49.283Z,10.63
2022-11-09T03:49:20.056Z,10.64
2022-11-09T03:49:50.828Z,10.70
2022-11-09T03:50:21.660Z,10.73
2022-11-09T03:50:52.548Z,10.74
2022-11-09T03:51:23.398Z,10.78
2022-11-09T03:51:54.254Z,10.79
2022-11-09T03:52:25.054Z,10.79
2022-11-09T03:52:55.886Z,10.81
2022-11-09T03:53:26.702Z,10.79
2022-11-09T03:53:57.496Z,10.81
2022-11-09T03:54:28.328Z,10.81
2022-11-09T03:54:59.375Z,10.81
2022-11-09T03:55:30.155Z,10.81
2022-11-09T03:56:00.946Z,10.78
2022-11-09T03:56:31.780Z,10.79
2022-11-09T03:57:02.615Z,10.76
2022-11-09T03:57:33.458Z,10.78
2022-11-09T03:58:04.329Z,10.78
2022-11-09T03:58:35.158Z,10.81
2022-11-09T03:59:05.941Z,10.81
2022-11-09T03:59:36.776Z,10.82
2022-11-09T04:00:07.608Z,10.82
2022-11-09T04:00:38.451Z,10.82
2022-11-09T04:01:09.297Z,10.82
2022-11-09T04:01:40.142Z,10.81
2022-11-09T04:02:11.070Z,10.82
2022-11-09T04:02:41.941Z,10.84
2022-11-09T04:03:12.758Z,10.85
2022-11-09T04:03:43.573Z,10.86
2022-11-09T04:04:14.421Z,10.88
2022-11-09T04:04:45.244Z,10.88
2022-11-09T04:05:16.061Z,10.88
2022-11-09T04:05:46.875Z,10.89
2022-11-09T04:06:17.732Z,10.88
2022-11-09T04:06:48.622Z,10.89
2022-11-09T04:07:19.519Z,10.88
2022-11-09T04:07:50.403Z,10.89
2022-11-09T04:08:21.235Z,10.89
2022-11-09T04:08:52.213Z,10.89
2022-11-09T04:09:23.009Z,10.91
2022-11-09T04:09:53.822Z,10.89
2022-11-09T04:10:24.624Z,10.89
2022-11-09T04:10:55.429Z,10.89
2022-11-09T04:11:26.234Z,10.91
2022-11-09T04:11:57.035Z,10.91
2022-11-09T04:12:27.839Z,10.92
2022-11-09T04:12:58.654Z,10.94
2022-11-09T04:13:29.464Z,10.94
2022-11-09T04:14:00.280Z,10.92
2022-11-09T04:14:31.094Z,10.91
2022-11-09T04:15:01.927Z,10.89
2022-11-09T04:15:32.720Z,10.89
2022-11-09T04:16:03.525Z,10.88
2022-11-09T04:16:34.340Z,10.88
2022-11-09T04:17:05.198Z,10.86
2022-11-09T04:17:35.993Z,10.88
2022-11-09T04:18:06.824Z,10.91
2022-11-09T04:18:37.660Z,10.89
2022-11-09T04:19:08.447Z,10.91
2022-11-09T04:19:39.273Z,10.89
2022-11-09T04:20:10.074Z,10.91
2022-11-09T04:20:40.929Z,10.92
2022-11-09T04:21:11.770Z,10.92
2022-11-09T04:21:42.594Z,10.94
2022-11-09T04:22:13.405Z,10.94
2022-11-09T04:22:44.218Z,10.99
2022-11-09T04:23:15.046Z,10.99
2022-11-09T04:23:45.825Z,11.00
2022-11-09T04:24:16.628Z,11.00
2022-11-09T04:24:47.467Z,11.00
2022-11-09T04:25:18.376Z,10.97
2022-11-09T04:25:49.178Z,10.99
2022-11-09T04:26:20.024Z,10.97
2022-11-09T04:26:50.844Z,10.96
2022-11-09T04:27:21.662Z,10.94
2022-11-09T04:27:52.526Z,10.94
2022-11-09T04:28:23.360Z,10.94
2022-11-09T04:28:54.206Z,10.91
2022-11-09T04:29:25.007Z,10.91
2022-11-09T04:29:55.818Z,10.91
2022-11-09T04:30:26.687Z,10.89
2022-11-09T04:30:57.586Z,10.86
2022-11-09T04:31:28.521Z,10.86
2022-11-09T04:31:59.337Z,10.86
2022-11-09T04:32:30.150Z,10.85
2022-11-09T04:33:01.025Z,10.85
2022-11-09T04:33:31.830Z,10.84
2022-11-09T04:34:02.717Z,10.82
2022-11-09T04:34:33.538Z,10.81
2022-11-09T04:35:04.417Z,10.81
2022-11-09T04:35:35.269Z,10.81
2022-11-09T04:36:06.105Z,10.79
2022-11-09T04:36:36.911Z,10.81
2022-11-09T04:37:07.763Z,10.79
2022-11-09T04:37:38.580Z,10.79
2022-11-09T04:38:09.390Z,10.79
2022-11-09T04:38:40.240Z,10.78
2022-11-09T04:39:11.059Z,10.78
2022-11-09T04:39:41.891Z,10.76
2022-11-09T04:40:12.691Z,10.76
2022-11-09T04:40:43.507Z,10.74
2022-11-09T04:41:14.302Z,10.74
2022-11-09T04:41:45.150Z,10.73
2022-11-09T04:42:15.948Z,10.70
2022-11-09T04:42:46.753Z,10.71
2022-11-09T04:43:17.881Z,10.68
2022-11-09T04:43:48.854Z,10.68
2022-11-09T04:44:19.710Z,10.67
2022-11-09T04:44:50.519Z,10.68
2022-11-09T04:45:21.328Z,10.68
2022-11-09T04:45:52.179Z,10.67
2022-11-09T04:46:23.038Z,10.67
2022-11-09T04:46:53.860Z,10.66
2022-11-09T04:47:24.630Z,10.64
2022-11-09T04:47:55.432Z,10.66
2022-11-09T04:48:26.290Z,10.64
2022-11-09T04:48:57.110Z,10.66
2022-11-09T04:49:27.957Z,10.64
2022-11-09T04:49:58.772Z,10.66
2022-11-09T04:50:29.581Z,10.66
2022-11-09T04:51:00.427Z,10.64
2022-11-09T04:51:31.291Z,10.68
2022-11-09T04:52:02.140Z,10.68
2022-11-09T04:52:32.918Z,10.67
2022-11-09T04:53:07.631Z,10.67
2022-11-09T04:53:35.706Z,10.67
2022-11-09T04:54:06.512Z,10.66
2022-11-09T04:54:37.348Z,10.68
2022-11-09T04:55:08.195Z,10.71
2022-11-09T04:55:39.040Z,10.71
2022-11-09T04:56:09.812Z,10.73
2022-11-09T04:56:40.635Z,10.73
2022-11-09T04:57:11.503Z,10.76
2022-11-09T04:57:42.366Z,10.78
2022-11-09T04:58:13.184Z,10.78
2022-11-09T04:58:43.993Z,10.79
2022-11-09T04:59:14.797Z,10.79
2022-11-09T04:59:45.581Z,10.79
2022-11-09T05:00:16.447Z,10.81
2022-11-09T05:00:47.235Z,10.81
2022-11-09T05:01:18.066Z,10.79
2022-11-09T05:01:48.916Z,10.78
2022-11-09T05:02:19.812Z,10.79
2022-11-09T05:02:50.636Z,10.78
2022-11-09T05:03:22.055Z,10.79
2022-11-09T05:03:53.240Z,10.79
2022-11-09T05:04:24.054Z,10.81
2022-11-09T05:04:54.855Z,10.81
2022-11-09T05:05:25.685Z,10.79
2022-11-09T05:05:56.505Z,10.84
2022-11-09T05:06:27.416Z,10.82
2022-11-09T05:06:58.310Z,10.82
2022-11-09T05:07:29.155Z,10.84
2022-11-09T05:08:00.002Z,10.85
2022-11-09T05:08:30.830Z,10.85
2022-11-09T05:09:01.657Z,10.86
2022-11-09T05:09:32.445Z,10.85
2022-11-09T05:10:03.254Z,10.86
2022-11-09T05:10:34.103Z,10.85
2022-11-09T05:11:04.966Z,10.85
2022-11-09T05:11:35.825Z,10.82
2022-11-09T05:12:06.679Z,10.82
2022-11-09T05:12:38.233Z,10.81
2022-11-09T05:13:08.007Z,10.79
2022-11-09T05:13:38.808Z,10.79
2022-11-09T05:14:09.635Z,10.79
2022-11-09T05:14:40.447Z,10.82
2022-11-09T05:15:11.262Z,10.81
2022-11-09T05:15:42.084Z,10.81
2022-11-09T05:16:12.877Z,10.82
2022-11-09T05:16:43.678Z,10.81
2022-11-09T05:17:14.514Z,10.82
2022-11-09T05:17:45.333Z,10.82
2022-11-09T05:18:16.167Z,10.82
2022-11-09T05:18:46.996Z,10.81
2022-11-09T05:19:17.768Z,10.81
2022-11-09T05:19:51.388Z,10.81
2022-11-09T05:20:21.262Z,10.82
2022-11-09T05:20:52.087Z,10.82
2022-11-09T05:21:22.902Z,10.85
2022-11-09T05:21:53.756Z,10.86
2022-11-09T05:22:24.894Z,10.89
2022-11-09T05:22:55.681Z,10.89
2022-11-09T05:23:26.494Z,10.91
2022-11-09T05:23:57.300Z,10.91
2022-11-09T05:24:28.151Z,10.89
2022-11-09T05:24:59.005Z,10.91
2022-11-09T05:25:29.780Z,10.89
2022-11-09T05:26:00.597Z,10.89
2022-11-09T05:26:31.412Z,10.88
2022-11-09T05:27:02.199Z,10.89
2022-11-09T05:27:33.020Z,10.92
2022-11-09T05:28:03.875Z,10.94
2022-11-09T05:28:34.661Z,10.96
2022-11-09T05:29:05.466Z,10.94
2022-11-09T05:29:36.281Z,10.96
2022-11-09T05:30:07.081Z,10.96
2022-11-09T05:31:38.195Z,11.02
2022-11-09T05:32:09.026Z,11.02
2022-11-09T05:32:39.827Z,11.02
2022-11-09T05:33:10.882Z,11.00
2022-11-09T05:33:41.698Z,10.99
2022-11-09T05:34:12.475Z,10.96
2022-11-09T05:34:43.249Z,10.94
2022-11-09T05:35:14.041Z,10.91
2022-11-09T05:35:44.889Z,10.92
2022-11-09T05:36:15.717Z,10.94
2022-11-09T05:36:46.512Z,10.94
2022-11-09T05:37:17.302Z,10.96
2022-11-09T05:37:48.116Z,10.94
2022-11-09T05:38:18.917Z,11.02
2022-11-09T05:38:49.739Z,11.03
2022-11-09T05:39:20.561Z,11.04
2022-11-09T05:39:51.381Z,11.06
2022-11-09T05:40:22.261Z,11.06
2022-11-09T05:40:53.063Z,11.06
2022-11-09T05:41:23.830Z,11.04
2022-11-09T05:41:54.652Z,11.04
2022-11-09T05:42:25.470Z,11.04
2022-11-09T05:42:56.264Z,11.04
2022-11-09T05:43:27.035Z,11.06
2022-11-09T05:43:57.840Z,11.06
2022-11-09T05:44:28.647Z,11.06
2022-11-09T05:45:15.125Z,11.07
2022-11-09T05:45:47.531Z,11.07
2022-11-09T05:46:06.800Z,11.07
2022-11-09T05:46:37.771Z,11.11
2022-11-09T05:47:08.608Z,11.14
2022-11-09T05:47:39.396Z,11.17
2022-11-09T05:48:10.196Z,11.18
2022-11-09T05:48:40.953Z,11.19
2022-11-09T05:49:11.739Z,11.22
2022-11-09T05:49:42.565Z,11.24
2022-11-09T05:50:13.354Z,11.25
2022-11-09T05:50:44.144Z,11.28
2022-11-09T05:51:14.952Z,11.32
2022-11-09T05:51:45.737Z,11.33
2022-11-09T05:52:16.544Z,11.35
2022-11-09T05:52:47.374Z,11.35
2022-11-09T05:53:18.526Z,11.36
2022-11-09T05:53:49.435Z,11.37
2022-11-09T05:54:20.207Z,11.39
2022-11-09T05:54:51.069Z,11.37
2022-11-09T05:55:21.884Z,11.37
2022-11-09T05:55:52.674Z,11.37
2022-11-09T05:56:23.456Z,11.36
2022-11-09T05:56:54.239Z,11.33
2022-11-09T05:57:25.066Z,11.33
2022-11-09T05:57:55.875Z,11.33
2022-11-09T05:58:26.667Z,11.32
2022-11-09T05:58:57.477Z,11.32
2022-11-09T05:59:28.262Z,11.32
2022-11-09T05:59:59.058Z,11.32
2022-11-09T06:00:29.833Z,11.35
2022-11-09T06:01:00.628Z,11.35
2022-11-09T06:01:31.438Z,11.35
2022-11-09T06:02:02.304Z,11.35
2022-11-09T06:02:33.195Z,11.33
2022-11-09T06:03:03.996Z,11.32
2022-11-09T06:03:34.781Z,11.29
2022-11-09T06:04:05.586Z,11.28
2022-11-09T06:04:36.414Z,11.27
2022-11-09T06:05:07.188Z,11.27
2022-11-09T06:05:38.020Z,11.24
2022-11-09T06:06:09.296Z,11.25
2022-11-09T06:06:40.140Z,11.22
2022-11-09T06:07:10.967Z,11.21
2022-11-09T06:07:41.736Z,11.19
2022-11-09T06:08:12.486Z,11.19
2022-11-09T06:08:43.230Z,11.18
2022-11-09T06:09:13.976Z,11.18
2022-11-09T06:09:44.847Z,11.17
2022-11-09T06:10:15.598Z,11.15
2022-11-09T06:10:46.341Z,11.14
2022-11-09T06:11:23.586Z,11.11
2022-11-09T06:11:49.699Z,11.11
2022-11-09T06:12:20.447Z,11.09
2022-11-09T06:12:51.187Z,11.09
2022-11-09T06:13:22.294Z,11.07
2022-11-09T06:13:53.249Z,11.09
2022-11-09T06:14:23.998Z,11.07
2022-11-09T06:14:54.749Z,11.07
2022-11-09T06:15:25.521Z,11.06
2022-11-09T06:15:56.279Z,11.07
2022-11-09T06:16:27.178Z,11.07
2022-11-09T06:16:57.960Z,11.07
2022-11-09T06:17:28.709Z,11.09
2022-11-09T06:17:59.468Z,11.11
2022-11-09T06:18:30.215Z,11.11
2022-11-09T06:19:00.951Z,11.11
2022-11-09T06:19:34.671Z,11.11
2022-11-09T06:20:02.395Z,11.14
2022-11-09T06:20:33.141Z,11.14
2022-11-09T06:21:03.895Z,11.15
2022-11-09T06:21:34.659Z,11.15
2022-11-09T06:22:05.400Z,11.17
2022-11-09T06:22:36.151Z,11.17
2022-11-09T06:23:06.898Z,11.19
2022-11-09T06:23:37.645Z,11.21
2022-11-09T06:24:08.679Z,11.19
2022-11-09T06:24:39.734Z,11.19
2022-11-09T06:25:10.687Z,11.19
2022-11-09T06:25:42.490Z,11.18
2022-11-09T06:26:13.561Z,11.18
2022-11-09T06:26:44.513Z,11.18
2022-11-09T06:27:15.400Z,11.17
2022-11-09T06:27:46.540Z,11.15
2022-11-09T06:28:17.324Z,11.15
2022-11-09T06:28:48.098Z,11.15
2022-11-09T06:29:18.842Z,11.17
2022-11-09T06:29:49.775Z,11.17
2022-11-09T06:30:20.796Z,11.17
2022-11-09T06:30:51.575Z,11.18
2022-11-09T06:31:22.367Z,11.19
2022-11-09T06:31:53.149Z,11.24
2022-11-09T06:32:23.919Z,11.25
2022-11-09T06:32:54.701Z,11.29
2022-11-09T06:33:25.474Z,11.33
2022-11-09T06:33:56.260Z,11.36
2022-11-09T06:34:27.017Z,11.39
2022-11-09T06:34:57.808Z,11.40
2022-11-09T06:35:28.586Z,11.40
2022-11-09T06:35:59.384Z,11.42
2022-11-09T06:36:30.155Z,11.42
2022-11-09T06:37:00.954Z,11.42
2022-11-09T06:37:31.730Z,11.40
2022-11-09T06:38:02.530Z,11.42